sensor_id;sensor_type;location;lat;lon;timestamp;P1;durP1;ratioP1;P2;durP2;ratioP2
52180;SDS011;38158;53.338;6.514;2023-03-12T00:03:57;17.17;;;5.45;;
52180;SDS011;38158;53.338;6.514;2023-03-12T00:06:25;11.10;;;5.05;;
52180;SDS011;38158;53.338;6.514;2023-03-12T00:08:51;12.50;;;5.97;;
52180;SDS011;38158;53.338;6.514;2023-03-12T00:11:17;12.07;;;5.10;;
52180;SDS011;38158;53.338;6.514;2023-03-12T00:13:48;13.68;;;4.97;;
52180;SDS011;38158;53.338;6.514;2023-03-12T00:16:17;11.52;;;5.75;;
52180;SDS011;38158;53.338;6.514;2023-03-12T00:18:45;11.65;;;4.95;;
52180;SDS011;38158;53.338;6.514;2023-03-12T00:21:12;14.23;;;5.82;;
52180;SDS011;38158;53.338;6.514;2023-03-12T00:23:38;12.20;;;5.55;;
52180;SDS011;38158;53.338;6.514;2023-03-12T00:26:05;13.30;;;4.63;;
52180;SDS011;38158;53.338;6.514;2023-03-12T00:28:32;9.88;;;5.40;;
52180;SDS011;38158;53.338;6.514;2023-03-12T00:30:59;13.30;;;4.60;;
52180;SDS011;38158;53.338;6.514;2023-03-12T00:33:25;9.53;;;4.63;;
52180;SDS011;38158;53.338;6.514;2023-03-12T00:35:52;14.10;;;5.70;;
52180;SDS011;38158;53.338;6.514;2023-03-12T00:38:18;14.35;;;5.50;;
52180;SDS011;38158;53.338;6.514;2023-03-12T00:40:44;16.17;;;4.82;;
52180;SDS011;38158;53.338;6.514;2023-03-12T00:43:09;7.95;;;4.35;;
52180;SDS011;38158;53.338;6.514;2023-03-12T00:45:35;10.95;;;5.20;;
52180;SDS011;38158;53.338;6.514;2023-03-12T00:48:01;10.55;;;4.82;;
52180;SDS011;38158;53.338;6.514;2023-03-12T00:50:27;10.88;;;4.93;;
52180;SDS011;38158;53.338;6.514;2023-03-12T00:52:52;12.45;;;4.55;;
52180;SDS011;38158;53.338;6.514;2023-03-12T00:55:18;9.13;;;4.70;;
52180;SDS011;38158;53.338;6.514;2023-03-12T00:57:44;15.10;;;5.60;;
52180;SDS011;38158;53.338;6.514;2023-03-12T01:00:10;12.27;;;5.28;;
52180;SDS011;38158;53.338;6.514;2023-03-12T01:02:37;12.30;;;5.75;;
52180;SDS011;38158;53.338;6.514;2023-03-12T01:05:04;9.63;;;4.30;;
52180;SDS011;38158;53.338;6.514;2023-03-12T01:07:31;12.55;;;6.07;;
52180;SDS011;38158;53.338;6.514;2023-03-12T01:09:57;10.25;;;4.72;;
52180;SDS011;38158;53.338;6.514;2023-03-12T01:12:23;8.82;;;4.55;;
52180;SDS011;38158;53.338;6.514;2023-03-12T01:14:48;7.75;;;4.18;;
52180;SDS011;38158;53.338;6.514;2023-03-12T01:17:14;14.52;;;5.63;;
52180;SDS011;38158;53.338;6.514;2023-03-12T01:19:40;11.55;;;5.25;;
52180;SDS011;38158;53.338;6.514;2023-03-12T01:22:05;10.32;;;4.50;;
52180;SDS011;38158;53.338;6.514;2023-03-12T01:24:31;10.15;;;4.55;;
52180;SDS011;38158;53.338;6.514;2023-03-12T01:26:57;9.73;;;5.90;;
52180;SDS011;38158;53.338;6.514;2023-03-12T01:29:22;9.93;;;4.80;;
52180;SDS011;38158;53.338;6.514;2023-03-12T01:31:48;12.82;;;4.70;;
52180;SDS011;38158;53.338;6.514;2023-03-12T01:34:16;9.80;;;5.00;;
52180;SDS011;38158;53.338;6.514;2023-03-12T01:36:42;8.93;;;4.95;;
52180;SDS011;38158;53.338;6.514;2023-03-12T01:39:09;9.82;;;4.65;;
52180;SDS011;38158;53.338;6.514;2023-03-12T01:41:34;10.40;;;4.90;;
52180;SDS011;38158;53.338;6.514;2023-03-12T01:44:01;8.98;;;4.70;;
52180;SDS011;38158;53.338;6.514;2023-03-12T01:48:58;10.52;;;5.00;;
52180;SDS011;38158;53.338;6.514;2023-03-12T01:51:26;9.25;;;4.75;;
52180;SDS011;38158;53.338;6.514;2023-03-12T01:53:56;8.82;;;4.10;;
52180;SDS011;38158;53.338;6.514;2023-03-12T01:56:26;14.35;;;5.22;;
52180;SDS011;38158;53.338;6.514;2023-03-12T01:58:55;8.85;;;3.78;;
52180;SDS011;38158;53.338;6.514;2023-03-12T02:01:24;9.23;;;4.45;;
52180;SDS011;38158;53.338;6.514;2023-03-12T02:03:51;7.65;;;4.10;;
52180;SDS011;38158;53.338;6.514;2023-03-12T02:06:22;8.27;;;3.90;;
52180;SDS011;38158;53.338;6.514;2023-03-12T02:08:53;7.32;;;3.63;;
52180;SDS011;38158;53.338;6.514;2023-03-12T02:11:20;12.80;;;4.32;;
52180;SDS011;38158;53.338;6.514;2023-03-12T02:13:46;8.07;;;3.67;;
52180;SDS011;38158;53.338;6.514;2023-03-12T02:16:12;6.75;;;3.72;;
52180;SDS011;38158;53.338;6.514;2023-03-12T02:18:37;10.48;;;4.40;;
52180;SDS011;38158;53.338;6.514;2023-03-12T02:21:13;9.60;;;4.03;;
52180;SDS011;38158;53.338;6.514;2023-03-12T02:24:00;8.93;;;4.65;;
52180;SDS011;38158;53.338;6.514;2023-03-12T02:26:39;9.40;;;4.30;;
52180;SDS011;38158;53.338;6.514;2023-03-12T02:29:06;8.05;;;3.75;;
52180;SDS011;38158;53.338;6.514;2023-03-12T02:31:36;10.30;;;4.03;;
52180;SDS011;38158;53.338;6.514;2023-03-12T02:34:08;10.82;;;4.68;;
52180;SDS011;38158;53.338;6.514;2023-03-12T02:36:34;8.98;;;4.25;;
52180;SDS011;38158;53.338;6.514;2023-03-12T02:39:00;7.05;;;4.40;;
52180;SDS011;38158;53.338;6.514;2023-03-12T02:41:30;9.82;;;5.00;;
52180;SDS011;38158;53.338;6.514;2023-03-12T02:46:33;9.07;;;4.60;;
52180;SDS011;38158;53.338;6.514;2023-03-12T02:49:02;11.52;;;4.50;;
52180;SDS011;38158;53.338;6.514;2023-03-12T02:51:28;13.48;;;5.78;;
52180;SDS011;38158;53.338;6.514;2023-03-12T02:53:54;10.18;;;4.43;;
52180;SDS011;38158;53.338;6.514;2023-03-12T02:56:24;8.25;;;4.70;;
52180;SDS011;38158;53.338;6.514;2023-03-12T02:58:50;12.80;;;5.00;;
52180;SDS011;38158;53.338;6.514;2023-03-12T03:01:16;9.52;;;4.38;;
52180;SDS011;38158;53.338;6.514;2023-03-12T03:03:42;8.35;;;4.38;;
52180;SDS011;38158;53.338;6.514;2023-03-12T03:06:08;8.55;;;3.95;;
52180;SDS011;38158;53.338;6.514;2023-03-12T03:08:34;9.48;;;4.07;;
52180;SDS011;38158;53.338;6.514;2023-03-12T03:11:00;9.70;;;3.85;;
52180;SDS011;38158;53.338;6.514;2023-03-12T03:13:27;9.77;;;4.15;;
52180;SDS011;38158;53.338;6.514;2023-03-12T03:15:54;7.45;;;4.07;;
52180;SDS011;38158;53.338;6.514;2023-03-12T03:18:22;8.57;;;3.90;;
52180;SDS011;38158;53.338;6.514;2023-03-12T03:20:55;9.18;;;3.97;;
52180;SDS011;38158;53.338;6.514;2023-03-12T03:23:25;6.47;;;3.13;;
52180;SDS011;38158;53.338;6.514;2023-03-12T03:25:50;9.40;;;3.15;;
52180;SDS011;38158;53.338;6.514;2023-03-12T03:28:20;8.02;;;3.25;;
52180;SDS011;38158;53.338;6.514;2023-03-12T03:30:47;11.77;;;3.67;;
52180;SDS011;38158;53.338;6.514;2023-03-12T03:33:13;10.68;;;3.70;;
52180;SDS011;38158;53.338;6.514;2023-03-12T03:35:39;9.52;;;3.47;;
52180;SDS011;38158;53.338;6.514;2023-03-12T03:38:05;7.53;;;2.85;;
52180;SDS011;38158;53.338;6.514;2023-03-12T03:40:31;8.33;;;3.20;;
52180;SDS011;38158;53.338;6.514;2023-03-12T03:42:57;11.18;;;3.60;;
52180;SDS011;38158;53.338;6.514;2023-03-12T03:45:23;11.27;;;3.05;;
52180;SDS011;38158;53.338;6.514;2023-03-12T03:47:49;9.05;;;3.33;;
52180;SDS011;38158;53.338;6.514;2023-03-12T03:50:14;9.82;;;3.35;;
52180;SDS011;38158;53.338;6.514;2023-03-12T03:52:40;6.60;;;3.20;;
52180;SDS011;38158;53.338;6.514;2023-03-12T03:55:06;10.32;;;2.63;;
52180;SDS011;38158;53.338;6.514;2023-03-12T03:57:32;9.90;;;3.10;;
52180;SDS011;38158;53.338;6.514;2023-03-12T03:59:58;7.95;;;2.92;;
52180;SDS011;38158;53.338;6.514;2023-03-12T04:02:25;7.43;;;2.40;;
52180;SDS011;38158;53.338;6.514;2023-03-12T04:04:51;5.88;;;2.80;;
52180;SDS011;38158;53.338;6.514;2023-03-12T04:07:17;5.68;;;2.50;;
52180;SDS011;38158;53.338;6.514;2023-03-12T04:09:43;7.50;;;3.00;;
52180;SDS011;38158;53.338;6.514;2023-03-12T04:12:08;9.07;;;2.90;;
52180;SDS011;38158;53.338;6.514;2023-03-12T04:14:37;5.55;;;2.70;;
52180;SDS011;38158;53.338;6.514;2023-03-12T04:17:04;6.68;;;2.75;;
52180;SDS011;38158;53.338;6.514;2023-03-12T04:19:30;5.50;;;3.00;;
52180;SDS011;38158;53.338;6.514;2023-03-12T04:21:55;7.30;;;3.17;;
52180;SDS011;38158;53.338;6.514;2023-03-12T04:24:21;7.03;;;2.88;;
52180;SDS011;38158;53.338;6.514;2023-03-12T04:26:47;8.63;;;3.30;;
52180;SDS011;38158;53.338;6.514;2023-03-12T04:29:13;6.70;;;3.22;;
52180;SDS011;38158;53.338;6.514;2023-03-12T04:31:39;7.15;;;3.67;;
52180;SDS011;38158;53.338;6.514;2023-03-12T04:34:04;9.05;;;3.85;;
52180;SDS011;38158;53.338;6.514;2023-03-12T04:36:30;7.93;;;3.83;;
52180;SDS011;38158;53.338;6.514;2023-03-12T04:38:56;7.53;;;3.45;;
52180;SDS011;38158;53.338;6.514;2023-03-12T04:41:22;8.10;;;3.95;;
52180;SDS011;38158;53.338;6.514;2023-03-12T04:43:48;10.90;;;3.80;;
52180;SDS011;38158;53.338;6.514;2023-03-12T04:46:13;7.60;;;3.55;;
52180;SDS011;38158;53.338;6.514;2023-03-12T04:48:39;7.95;;;3.40;;
52180;SDS011;38158;53.338;6.514;2023-03-12T04:51:05;10.25;;;3.70;;
52180;SDS011;38158;53.338;6.514;2023-03-12T04:53:31;8.00;;;3.55;;
52180;SDS011;38158;53.338;6.514;2023-03-12T04:55:57;8.65;;;3.20;;
52180;SDS011;38158;53.338;6.514;2023-03-12T04:58:23;9.90;;;3.47;;
52180;SDS011;38158;53.338;6.514;2023-03-12T05:00:49;8.45;;;3.60;;
52180;SDS011;38158;53.338;6.514;2023-03-12T05:03:15;9.00;;;2.58;;
52180;SDS011;38158;53.338;6.514;2023-03-12T05:05:42;8.43;;;3.83;;
52180;SDS011;38158;53.338;6.514;2023-03-12T05:08:08;9.90;;;4.05;;
52180;SDS011;38158;53.338;6.514;2023-03-12T05:10:33;6.05;;;2.80;;
52180;SDS011;38158;53.338;6.514;2023-03-12T05:12:59;6.50;;;3.35;;
52180;SDS011;38158;53.338;6.514;2023-03-12T05:15:25;9.55;;;3.60;;
52180;SDS011;38158;53.338;6.514;2023-03-12T05:17:51;9.48;;;3.30;;
52180;SDS011;38158;53.338;6.514;2023-03-12T05:20:16;10.80;;;3.33;;
52180;SDS011;38158;53.338;6.514;2023-03-12T05:22:42;12.55;;;3.80;;
52180;SDS011;38158;53.338;6.514;2023-03-12T05:25:08;7.90;;;2.83;;
52180;SDS011;38158;53.338;6.514;2023-03-12T05:27:34;8.70;;;3.30;;
52180;SDS011;38158;53.338;6.514;2023-03-12T05:30:01;9.57;;;3.50;;
52180;SDS011;38158;53.338;6.514;2023-03-12T05:32:28;8.65;;;3.40;;
52180;SDS011;38158;53.338;6.514;2023-03-12T05:34:54;6.85;;;3.35;;
52180;SDS011;38158;53.338;6.514;2023-03-12T05:37:19;10.65;;;3.80;;
52180;SDS011;38158;53.338;6.514;2023-03-12T05:39:45;7.05;;;3.85;;
52180;SDS011;38158;53.338;6.514;2023-03-12T05:42:11;10.27;;;3.78;;
52180;SDS011;38158;53.338;6.514;2023-03-12T05:44:38;10.95;;;4.22;;
52180;SDS011;38158;53.338;6.514;2023-03-12T05:47:05;7.82;;;3.50;;
52180;SDS011;38158;53.338;6.514;2023-03-12T05:49:31;7.95;;;3.47;;
52180;SDS011;38158;53.338;6.514;2023-03-12T05:51:57;8.88;;;3.55;;
52180;SDS011;38158;53.338;6.514;2023-03-12T05:54:23;6.28;;;3.05;;
52180;SDS011;38158;53.338;6.514;2023-03-12T05:56:49;7.78;;;3.50;;
52180;SDS011;38158;53.338;6.514;2023-03-12T05:59:15;10.90;;;3.65;;
52180;SDS011;38158;53.338;6.514;2023-03-12T06:01:40;19.55;;;4.72;;
52180;SDS011;38158;53.338;6.514;2023-03-12T06:04:06;6.65;;;3.47;;
52180;SDS011;38158;53.338;6.514;2023-03-12T06:06:33;9.00;;;3.65;;
52180;SDS011;38158;53.338;6.514;2023-03-12T06:09:00;9.90;;;3.28;;
52180;SDS011;38158;53.338;6.514;2023-03-12T06:11:28;11.95;;;3.97;;
52180;SDS011;38158;53.338;6.514;2023-03-12T06:13:54;8.90;;;3.83;;
52180;SDS011;38158;53.338;6.514;2023-03-12T06:16:23;9.23;;;3.80;;
52180;SDS011;38158;53.338;6.514;2023-03-12T06:18:53;7.93;;;3.47;;
52180;SDS011;38158;53.338;6.514;2023-03-12T06:21:21;9.95;;;3.53;;
52180;SDS011;38158;53.338;6.514;2023-03-12T06:23:49;10.00;;;3.45;;
52180;SDS011;38158;53.338;6.514;2023-03-12T06:26:16;9.60;;;3.88;;
52180;SDS011;38158;53.338;6.514;2023-03-12T06:28:43;15.38;;;4.20;;
52180;SDS011;38158;53.338;6.514;2023-03-12T06:33:36;7.22;;;3.40;;
52180;SDS011;38158;53.338;6.514;2023-03-12T06:36:02;11.82;;;4.40;;
52180;SDS011;38158;53.338;6.514;2023-03-12T06:38:30;9.45;;;4.00;;
52180;SDS011;38158;53.338;6.514;2023-03-12T06:40:56;8.23;;;4.18;;
52180;SDS011;38158;53.338;6.514;2023-03-12T06:43:24;11.43;;;3.97;;
52180;SDS011;38158;53.338;6.514;2023-03-12T06:45:50;8.00;;;4.22;;
52180;SDS011;38158;53.338;6.514;2023-03-12T06:50:43;7.95;;;3.92;;
52180;SDS011;38158;53.338;6.514;2023-03-12T06:53:09;8.93;;;3.97;;
52180;SDS011;38158;53.338;6.514;2023-03-12T06:55:34;7.68;;;4.05;;
52180;SDS011;38158;53.338;6.514;2023-03-12T06:58:00;8.75;;;4.10;;
52180;SDS011;38158;53.338;6.514;2023-03-12T07:00:28;10.48;;;4.15;;
52180;SDS011;38158;53.338;6.514;2023-03-12T07:02:54;9.02;;;3.78;;
52180;SDS011;38158;53.338;6.514;2023-03-12T07:05:21;8.65;;;3.78;;
52180;SDS011;38158;53.338;6.514;2023-03-12T07:07:47;9.82;;;3.72;;
52180;SDS011;38158;53.338;6.514;2023-03-12T07:10:13;7.85;;;3.80;;
52180;SDS011;38158;53.338;6.514;2023-03-12T07:12:39;11.43;;;4.00;;
52180;SDS011;38158;53.338;6.514;2023-03-12T07:15:05;8.48;;;3.50;;
52180;SDS011;38158;53.338;6.514;2023-03-12T07:17:31;7.37;;;3.50;;
52180;SDS011;38158;53.338;6.514;2023-03-12T07:19:58;14.97;;;4.33;;
52180;SDS011;38158;53.338;6.514;2023-03-12T07:22:23;6.38;;;3.90;;
52180;SDS011;38158;53.338;6.514;2023-03-12T07:24:49;12.05;;;4.68;;
52180;SDS011;38158;53.338;6.514;2023-03-12T07:27:15;9.43;;;4.70;;
52180;SDS011;38158;53.338;6.514;2023-03-12T07:29:42;11.55;;;4.65;;
52180;SDS011;38158;53.338;6.514;2023-03-12T07:32:08;10.05;;;4.70;;
52180;SDS011;38158;53.338;6.514;2023-03-12T07:34:34;9.38;;;4.70;;
52180;SDS011;38158;53.338;6.514;2023-03-12T07:36:59;11.75;;;5.55;;
52180;SDS011;38158;53.338;6.514;2023-03-12T07:39:25;12.90;;;5.72;;
52180;SDS011;38158;53.338;6.514;2023-03-12T07:41:51;13.68;;;6.28;;
52180;SDS011;38158;53.338;6.514;2023-03-12T07:44:17;13.27;;;6.57;;
52180;SDS011;38158;53.338;6.514;2023-03-12T07:46:42;13.90;;;6.65;;
52180;SDS011;38158;53.338;6.514;2023-03-12T07:49:08;13.40;;;6.90;;
52180;SDS011;38158;53.338;6.514;2023-03-12T07:51:34;14.48;;;6.22;;
52180;SDS011;38158;53.338;6.514;2023-03-12T07:54:00;15.15;;;7.32;;
52180;SDS011;38158;53.338;6.514;2023-03-12T07:56:25;15.18;;;7.07;;
52180;SDS011;38158;53.338;6.514;2023-03-12T07:58:51;12.30;;;7.22;;
52180;SDS011;38158;53.338;6.514;2023-03-12T08:01:17;14.77;;;6.82;;
52180;SDS011;38158;53.338;6.514;2023-03-12T08:03:43;14.10;;;6.55;;
52180;SDS011;38158;53.338;6.514;2023-03-12T08:06:08;15.80;;;8.48;;
52180;SDS011;38158;53.338;6.514;2023-03-12T08:08:34;12.15;;;7.40;;
52180;SDS011;38158;53.338;6.514;2023-03-12T08:11:02;15.05;;;8.60;;
52180;SDS011;38158;53.338;6.514;2023-03-12T08:13:29;13.65;;;7.72;;
52180;SDS011;38158;53.338;6.514;2023-03-12T08:15:54;14.43;;;8.15;;
52180;SDS011;38158;53.338;6.514;2023-03-12T08:18:20;15.68;;;7.88;;
52180;SDS011;38158;53.338;6.514;2023-03-12T08:20:50;11.30;;;8.13;;
52180;SDS011;38158;53.338;6.514;2023-03-12T08:23:17;14.05;;;8.55;;
52180;SDS011;38158;53.338;6.514;2023-03-12T08:25:44;14.73;;;9.25;;
52180;SDS011;38158;53.338;6.514;2023-03-12T08:28:11;18.10;;;10.75;;
52180;SDS011;38158;53.338;6.514;2023-03-12T08:30:37;17.17;;;9.20;;
52180;SDS011;38158;53.338;6.514;2023-03-12T08:33:02;19.13;;;9.50;;
52180;SDS011;38158;53.338;6.514;2023-03-12T08:35:28;13.50;;;9.35;;
52180;SDS011;38158;53.338;6.514;2023-03-12T08:37:54;12.75;;;7.70;;
52180;SDS011;38158;53.338;6.514;2023-03-12T08:40:21;15.90;;;9.50;;
52180;SDS011;38158;53.338;6.514;2023-03-12T08:42:48;13.68;;;9.73;;
52180;SDS011;38158;53.338;6.514;2023-03-12T08:45:14;17.75;;;11.88;;
52180;SDS011;38158;53.338;6.514;2023-03-12T08:47:40;17.07;;;10.97;;
52180;SDS011;38158;53.338;6.514;2023-03-12T08:52:34;16.98;;;10.85;;
52180;SDS011;38158;53.338;6.514;2023-03-12T08:54:59;18.48;;;11.63;;
52180;SDS011;38158;53.338;6.514;2023-03-12T08:57:25;18.50;;;11.27;;
52180;SDS011;38158;53.338;6.514;2023-03-12T08:59:51;16.02;;;10.93;;
52180;SDS011;38158;53.338;6.514;2023-03-12T09:02:16;16.25;;;11.20;;
52180;SDS011;38158;53.338;6.514;2023-03-12T09:04:45;16.38;;;10.75;;
52180;SDS011;38158;53.338;6.514;2023-03-12T09:07:12;21.20;;;10.57;;
52180;SDS011;38158;53.338;6.514;2023-03-12T09:09:38;18.40;;;11.27;;
52180;SDS011;38158;53.338;6.514;2023-03-12T09:12:03;19.25;;;12.05;;
52180;SDS011;38158;53.338;6.514;2023-03-12T09:14:29;15.23;;;10.30;;
52180;SDS011;38158;53.338;6.514;2023-03-12T09:16:56;17.35;;;10.45;;
52180;SDS011;38158;53.338;6.514;2023-03-12T09:19:22;17.65;;;11.90;;
52180;SDS011;38158;53.338;6.514;2023-03-12T09:21:47;15.50;;;9.55;;
52180;SDS011;38158;53.338;6.514;2023-03-12T09:24:13;15.50;;;10.95;;
52180;SDS011;38158;53.338;6.514;2023-03-12T09:26:39;14.82;;;9.23;;
52180;SDS011;38158;53.338;6.514;2023-03-12T09:29:04;12.38;;;8.90;;
52180;SDS011;38158;53.338;6.514;2023-03-12T09:31:30;18.80;;;10.07;;
52180;SDS011;38158;53.338;6.514;2023-03-12T09:33:56;18.38;;;9.55;;
52180;SDS011;38158;53.338;6.514;2023-03-12T09:36:21;16.00;;;9.10;;
52180;SDS011;38158;53.338;6.514;2023-03-12T09:38:47;17.38;;;9.10;;
52180;SDS011;38158;53.338;6.514;2023-03-12T09:41:22;12.77;;;8.65;;
52180;SDS011;38158;53.338;6.514;2023-03-12T09:46:56;17.80;;;10.02;;
52180;SDS011;38158;53.338;6.514;2023-03-12T09:49:20;13.90;;;8.80;;
52180;SDS011;38158;53.338;6.514;2023-03-12T09:51:55;14.30;;;10.00;;
52180;SDS011;38158;53.338;6.514;2023-03-12T09:54:40;15.27;;;9.38;;
52180;SDS011;38158;53.338;6.514;2023-03-12T09:57:15;14.43;;;9.57;;
52180;SDS011;38158;53.338;6.514;2023-03-12T09:59:49;14.10;;;8.95;;
52180;SDS011;38158;53.338;6.514;2023-03-12T10:07:59;12.23;;;8.57;;
52180;SDS011;38158;53.338;6.514;2023-03-12T10:10:54;13.82;;;9.80;;
52180;SDS011;38158;53.338;6.514;2023-03-12T10:16:16;14.77;;;10.27;;
52180;SDS011;38158;53.338;6.514;2023-03-12T10:26:33;14.30;;;9.75;;
52180;SDS011;38158;53.338;6.514;2023-03-12T10:29:02;12.57;;;9.73;;
52180;SDS011;38158;53.338;6.514;2023-03-12T10:31:52;12.00;;;8.60;;
52180;SDS011;38158;53.338;6.514;2023-03-12T10:34:24;11.98;;;9.65;;
52180;SDS011;38158;53.338;6.514;2023-03-12T10:36:52;14.88;;;9.73;;
52180;SDS011;38158;53.338;6.514;2023-03-12T10:39:27;14.25;;;9.70;;
52180;SDS011;38158;53.338;6.514;2023-03-12T10:41:56;11.88;;;9.38;;
52180;SDS011;38158;53.338;6.514;2023-03-12T10:44:25;14.15;;;8.80;;
52180;SDS011;38158;53.338;6.514;2023-03-12T10:49:35;13.40;;;9.30;;
52180;SDS011;38158;53.338;6.514;2023-03-12T10:52:18;11.32;;;9.20;;
52180;SDS011;38158;53.338;6.514;2023-03-12T10:54:46;12.50;;;9.88;;
52180;SDS011;38158;53.338;6.514;2023-03-12T10:57:16;13.35;;;9.85;;
52180;SDS011;38158;53.338;6.514;2023-03-12T10:59:44;15.70;;;10.23;;
52180;SDS011;38158;53.338;6.514;2023-03-12T11:02:28;10.23;;;8.60;;
52180;SDS011;38158;53.338;6.514;2023-03-12T11:05:49;19.70;;;13.70;;
52180;SDS011;38158;53.338;6.514;2023-03-12T11:07:52;14.45;;;9.95;;
52180;SDS011;38158;53.338;6.514;2023-03-12T11:12:53;15.02;;;10.32;;
52180;SDS011;38158;53.338;6.514;2023-03-12T11:15:28;18.67;;;13.55;;
52180;SDS011;38158;53.338;6.514;2023-03-12T11:18:20;13.75;;;10.35;;
52180;SDS011;38158;53.338;6.514;2023-03-12T11:20:57;19.30;;;10.93;;
52180;SDS011;38158;53.338;6.514;2023-03-12T11:24:11;15.02;;;10.90;;
52180;SDS011;38158;53.338;6.514;2023-03-12T11:29:25;15.40;;;10.48;;
52180;SDS011;38158;53.338;6.514;2023-03-12T11:34:33;19.33;;;11.25;;
52180;SDS011;38158;53.338;6.514;2023-03-12T11:39:57;16.85;;;11.30;;
52180;SDS011;38158;53.338;6.514;2023-03-12T12:01:57;18.70;;;12.25;;
52180;SDS011;38158;53.338;6.514;2023-03-12T12:07:17;18.65;;;10.75;;
52180;SDS011;38158;53.338;6.514;2023-03-12T12:20:42;18.90;;;12.20;;
52180;SDS011;38158;53.338;6.514;2023-03-12T12:23:21;14.65;;;11.05;;
52180;SDS011;38158;53.338;6.514;2023-03-12T12:34:08;16.15;;;11.07;;
52180;SDS011;38158;53.338;6.514;2023-03-12T12:36:44;18.83;;;11.63;;
52180;SDS011;38158;53.338;6.514;2023-03-12T12:39:16;17.15;;;11.88;;
52180;SDS011;38158;53.338;6.514;2023-03-12T12:42:01;23.27;;;13.25;;
52180;SDS011;38158;53.338;6.514;2023-03-12T12:44:31;18.98;;;12.10;;
52180;SDS011;38158;53.338;6.514;2023-03-12T12:47:03;21.10;;;11.95;;
52180;SDS011;38158;53.338;6.514;2023-03-12T12:49:52;20.85;;;11.70;;
52180;SDS011;38158;53.338;6.514;2023-03-12T12:52:21;20.83;;;13.05;;
52180;SDS011;38158;53.338;6.514;2023-03-12T13:02:29;20.25;;;11.27;;
52180;SDS011;38158;53.338;6.514;2023-03-12T13:04:58;21.73;;;11.23;;
52180;SDS011;38158;53.338;6.514;2023-03-12T13:09:52;22.70;;;11.65;;
52180;SDS011;38158;53.338;6.514;2023-03-12T13:14:59;38.78;;;12.57;;
52180;SDS011;38158;53.338;6.514;2023-03-12T13:30:57;23.88;;;11.02;;
52180;SDS011;38158;53.338;6.514;2023-03-12T13:33:43;24.58;;;10.70;;
52180;SDS011;38158;53.338;6.514;2023-03-12T13:41:35;34.45;;;11.32;;
52180;SDS011;38158;53.338;6.514;2023-03-12T13:49:42;27.42;;;10.25;;
52180;SDS011;38158;53.338;6.514;2023-03-12T14:00:44;34.83;;;9.38;;
52180;SDS011;38158;53.338;6.514;2023-03-12T14:03:17;29.35;;;8.95;;
52180;SDS011;38158;53.338;6.514;2023-03-12T14:06:10;34.58;;;8.40;;
52180;SDS011;38158;53.338;6.514;2023-03-12T14:08:45;30.45;;;8.18;;
52180;SDS011;38158;53.338;6.514;2023-03-12T14:17:17;31.08;;;6.75;;
52180;SDS011;38158;53.338;6.514;2023-03-12T14:22:30;35.90;;;10.43;;
52180;SDS011;38158;53.338;6.514;2023-03-12T14:25:21;33.85;;;7.88;;
52180;SDS011;38158;53.338;6.514;2023-03-12T14:27:53;36.85;;;6.65;;
52180;SDS011;38158;53.338;6.514;2023-03-12T14:30:22;23.38;;;5.25;;
52180;SDS011;38158;53.338;6.514;2023-03-12T14:32:55;34.00;;;7.13;;
52180;SDS011;38158;53.338;6.514;2023-03-12T14:35:36;37.42;;;7.07;;
52180;SDS011;38158;53.338;6.514;2023-03-12T14:38:12;32.03;;;5.18;;
52180;SDS011;38158;53.338;6.514;2023-03-12T14:43:19;25.83;;;4.80;;
52180;SDS011;38158;53.338;6.514;2023-03-12T14:45:45;29.55;;;5.50;;
52180;SDS011;38158;53.338;6.514;2023-03-12T14:48:13;33.28;;;5.43;;
52180;SDS011;38158;53.338;6.514;2023-03-12T14:50:44;46.47;;;9.95;;
52180;SDS011;38158;53.338;6.514;2023-03-12T14:53:23;33.40;;;5.95;;
52180;SDS011;38158;53.338;6.514;2023-03-12T14:58:54;27.35;;;6.05;;
52180;SDS011;38158;53.338;6.514;2023-03-12T15:01:31;24.55;;;4.90;;
52180;SDS011;38158;53.338;6.514;2023-03-12T15:04:02;26.25;;;5.20;;
52180;SDS011;38158;53.338;6.514;2023-03-12T15:06:45;33.97;;;6.63;;
52180;SDS011;38158;53.338;6.514;2023-03-12T15:09:21;21.88;;;4.38;;
52180;SDS011;38158;53.338;6.514;2023-03-12T15:14:18;31.20;;;4.85;;
52180;SDS011;38158;53.338;6.514;2023-03-12T15:19:11;28.08;;;4.97;;
52180;SDS011;38158;53.338;6.514;2023-03-12T15:21:40;33.15;;;6.15;;
52180;SDS011;38158;53.338;6.514;2023-03-12T15:24:06;24.08;;;4.85;;
52180;SDS011;38158;53.338;6.514;2023-03-12T15:26:37;31.40;;;5.60;;
52180;SDS011;38158;53.338;6.514;2023-03-12T15:29:14;37.03;;;5.43;;
52180;SDS011;38158;53.338;6.514;2023-03-12T15:31:50;23.77;;;4.47;;
52180;SDS011;38158;53.338;6.514;2023-03-12T15:37:01;28.30;;;4.53;;
52180;SDS011;38158;53.338;6.514;2023-03-12T15:39:42;26.95;;;4.90;;
52180;SDS011;38158;53.338;6.514;2023-03-12T15:42:16;37.97;;;6.30;;
52180;SDS011;38158;53.338;6.514;2023-03-12T15:44:44;26.80;;;4.75;;
52180;SDS011;38158;53.338;6.514;2023-03-12T15:47:14;33.88;;;5.70;;
52180;SDS011;38158;53.338;6.514;2023-03-12T15:49:42;30.50;;;4.90;;
52180;SDS011;38158;53.338;6.514;2023-03-12T15:57:24;26.85;;;4.95;;
52180;SDS011;38158;53.338;6.514;2023-03-12T16:03:00;28.25;;;5.30;;
52180;SDS011;38158;53.338;6.514;2023-03-12T16:05:38;32.78;;;5.88;;
52180;SDS011;38158;53.338;6.514;2023-03-12T16:10:41;30.90;;;5.55;;
52180;SDS011;38158;53.338;6.514;2023-03-12T16:13:09;26.83;;;5.20;;
52180;SDS011;38158;53.338;6.514;2023-03-12T16:15:39;35.03;;;6.13;;
52180;SDS011;38158;53.338;6.514;2023-03-12T16:18:05;32.08;;;5.10;;
52180;SDS011;38158;53.338;6.514;2023-03-12T16:20:40;34.38;;;4.68;;
52180;SDS011;38158;53.338;6.514;2023-03-12T16:23:06;28.63;;;4.03;;
52180;SDS011;38158;53.338;6.514;2023-03-12T16:25:33;32.53;;;5.18;;
52180;SDS011;38158;53.338;6.514;2023-03-12T16:28:00;39.08;;;5.80;;
52180;SDS011;38158;53.338;6.514;2023-03-12T16:30:32;38.92;;;6.13;;
52180;SDS011;38158;53.338;6.514;2023-03-12T16:33:03;34.35;;;5.30;;
52180;SDS011;38158;53.338;6.514;2023-03-12T16:35:30;31.63;;;5.57;;
52180;SDS011;38158;53.338;6.514;2023-03-12T16:37:56;29.67;;;6.10;;
52180;SDS011;38158;53.338;6.514;2023-03-12T16:40:25;30.45;;;5.38;;
52180;SDS011;38158;53.338;6.514;2023-03-12T16:42:52;28.38;;;5.65;;
52180;SDS011;38158;53.338;6.514;2023-03-12T16:45:19;40.25;;;6.07;;
52180;SDS011;38158;53.338;6.514;2023-03-12T16:47:47;33.72;;;6.97;;
52180;SDS011;38158;53.338;6.514;2023-03-12T16:50:21;32.08;;;6.35;;
52180;SDS011;38158;53.338;6.514;2023-03-12T16:52:47;30.30;;;5.25;;
52180;SDS011;38158;53.338;6.514;2023-03-12T16:55:20;32.05;;;5.80;;
52180;SDS011;38158;53.338;6.514;2023-03-12T16:57:53;40.33;;;5.55;;
52180;SDS011;38158;53.338;6.514;2023-03-12T17:00:33;37.65;;;5.75;;
52180;SDS011;38158;53.338;6.514;2023-03-12T17:02:59;34.90;;;5.70;;
52180;SDS011;38158;53.338;6.514;2023-03-12T17:05:26;39.13;;;7.18;;
52180;SDS011;38158;53.338;6.514;2023-03-12T17:07:53;34.03;;;5.00;;
52180;SDS011;38158;53.338;6.514;2023-03-12T17:10:19;33.93;;;5.70;;
52180;SDS011;38158;53.338;6.514;2023-03-12T17:12:46;36.70;;;5.87;;
52180;SDS011;38158;53.338;6.514;2023-03-12T17:15:17;33.30;;;6.28;;
52180;SDS011;38158;53.338;6.514;2023-03-12T17:17:46;35.17;;;5.05;;
52180;SDS011;38158;53.338;6.514;2023-03-12T17:20:13;37.67;;;6.20;;
52180;SDS011;38158;53.338;6.514;2023-03-12T17:25:06;38.33;;;6.15;;
52180;SDS011;38158;53.338;6.514;2023-03-12T17:27:39;38.80;;;6.43;;
52180;SDS011;38158;53.338;6.514;2023-03-12T17:30:04;32.53;;;4.68;;
52180;SDS011;38158;53.338;6.514;2023-03-12T17:32:31;36.53;;;4.90;;
52180;SDS011;38158;53.338;6.514;2023-03-12T17:34:56;41.05;;;5.85;;